NEODyS-2

Near Earth Objects - Dynamic Site
NEODyS ∴ Observatories ∴ Site 691 ∴ Obs & residuals
Contact »
691  ▹ 
OBSERVATIONS AND RESIDUALS

691-Steward Observatory, Kitt Peak-Spacewatch

Detections | Residuals | Detections & Residuals

[1-200] [201-400] [401-600] [601-800] [801-1000] [1001-1200] [1201-1400] [1401-1600] [1601-1800] [1801-2000] [2001-2200] [2201-2400] [2401-2600] [2601-2800] [2801-3000] [3001-3200] [3201-3400] [3401-3600] [3601-3800] [3801-4000] [4001-4200] [4201-4400] [4401-4600] [4601-4800] [4801-5000] [5001-5200] [5201-5400] [5401-5600] [5601-5800] [5801-6000] [6001-6200] [6201-6400] [6401-6600] [6601-6800] [6801-7000] [7001-7200] [7201-7400] [7401-7600] [7601-7800] [7801-8000] [8001-8200] [8201-8400] [8401-8600] [8601-8800] [8801-9000] [9001-9200] [9201-9400] [9401-9600] [9601-9800] [9801-10000] [10001-10200] [10201-10400] [10401-10600] [10601-10800] [10801-11000] [11001-11200] [11201-11400] [11401-11600] [11601-11800] [11801-12000] [12001-12200] [12201-12400] [12401-12600] [12601-12800] [12801-13000] [13001-13200] [13201-13400] [13401-13600] [13601-13800] [13801-14000] [14001-14200] [14201-14400] [14401-14600] [14601-14800] [14801-15000] [15001-15200] [15201-15400] [15401-15600] [15601-15800] [15801-16000] [16001-16200] [16201-16400] [16401-16600] [16601-16800] [16801-17000] [17001-17200] [17201-17400] [17401-17600] [17601-17800] [17801-18000] [18001-18200] [18201-18400] [18401-18600] [18601-18800] [18801-19000] [19001-19200] [19201-19400] [19401-19600] [19601-19800] [19801-20000] [20001-20200] [20201-20400] [20401-20600] [20601-20800] [20801-21000] [21001-21200] [21201-21400] [21401-21600] [21601-21800] [21801-22000] [22001-22200] [22201-22400] [22401-22600] [22601-22800] [22801-23000] [23001-23200] [23201-23400] [23401-23600] [23601-23800] [23801-24000] [24001-24200] [24201-24400] [24401-24600] [24601-24800] [24801-25000] [25001-25200] [25201-25400] [25401-25600] [25601-25800] [25801-26000] [26001-26200] [26201-26400] [26401-26600] [26601-26800] [26801-27000] [27001-27200] [27201-27400] [27401-27600] [27601-27800] [27801-28000] [28001-28200] [28201-28400] [28401-28600] [28601-28800] [28801-29000] [29001-29200] [29201-29400] [29401-29600] [29601-29800] [29801-30000] [30001-30200] [30201-30400] [30401-30600] [30601-30800] [30801-31000] [31001-31200] [31201-31400] [31401-31600] [31601-31800] [31801-32000] [32001-32200] [32201-32400] [32401-32600] [32601-32800] [32801-33000] [33001-33200] [33201-33400] [33401-33600] [33601-33800] [33801-34000] [34001-34200] [34201-34400] [34401-34600] [34601-34800] [34801-35000] [35001-35200] [35201-35400] [35401-35600] [35601-35800] [35801-36000] [36001-36200] [36201-36400] [36401-36600] [36601-36800] [36801-37000] [37001-37200] [37201-37400] [37401-37600] [37601-37800] [37801-38000] [38001-38200] [38201-38400] [38401-38600] [38601-38800] [38801-39000] [39001-39200] [39201-39400] [39401-39600] [39601-39800] [39801-40000] [40001-40200] [40201-40400] [40401-40600] [40601-40800] [40801-41000] [41001-41200] [41201-41400] [41401-41600] [41601-41800] [41801-42000] [42001-42200] [42201-42400] [42401-42600] [42601-42800] [42801-43000] [43001-43200] [43201-43400] [43401-43600] [43601-43800] [43801-44000] [44001-44200] [44201-44400] [44401-44600] [44601-44800] [44801-45000] [45001-45200] [45201-45400] [45401-45600] [45601-45800] [45801-46000] [46001-46200] [46201-46400] [46401-46600] [46601-46800] [46801-47000] [47001-47200] [47201-47400] [47401-47600] [47601-47800] [47801-48000] [48001-48200] [48201-48400] [48401-48600] [48601-48800] [48801-49000] [49001-49200] [49201-49400] [49401-49600] [49601-49800] [49801-50000] [50001-50200] [50201-50388]

Designation T Tech N Date Right Ascension Declination Apparent Magnitude Star Catalog Site code χ Used A Used M
yr-mo-day precision hr:min:sec precision rms F bias residual deg min sec precision rms F bias residual mag/col rms residual
2005NX55 O C t 2005-07-11.19755 1.000E-05 16:02:14.620 1.500E-01 0.500 F 0.252 0.603 -08° 46' 06.60" 1.000E-01 0.500 F 0.397 0.301 20.0 V 0.70 0.05 c 691 2.13 Yes Yes
1999JA11 O C 2005-07-16.37555 1.000E-05 20:47:17.090 1.500E-01 0.500 F -0.080 0.083 -20° 16' 03.90" 1.000E-01 0.500 F -0.010 0.172 19.0 V 0.70 0.37 c 691 0.38 Yes Yes
McAuliffe O C 2005-07-16.37804 1.000E-05 20:38:33.750 1.500E-01 0.500 F -0.201 -0.034 -20° 27' 21.00" 1.000E-01 0.500 F -0.036 0.003 19.6 V 0.70 0.31 c 691 0.07 Yes Yes
1999JA11 O C 2005-07-16.39287 1.000E-05 20:47:15.290 1.500E-01 0.500 F -0.080 0.145 -20° 16' 34.20" 1.000E-01 0.500 F -0.010 0.087 19.0 V 0.70 0.37 c 691 0.34 Yes Yes
McAuliffe O C 2005-07-16.39529 1.000E-05 20:38:32.490 1.500E-01 0.500 F -0.201 -0.040 -20° 27' 27.40" 1.000E-01 0.500 F -0.036 -0.082 19.5 V 0.70 0.21 c 691 0.18 Yes Yes
1999JA11 O C 2005-07-16.41020 1.000E-05 20:47:13.450 1.500E-01 0.500 F -0.080 -0.358 -20° 17' 04.40" 1.000E-01 0.500 F -0.010 0.074 18.8 V 0.70 0.17 c 691 0.74 Yes Yes
McAuliffe O C 2005-07-16.41263 1.000E-05 20:38:31.230 1.500E-01 0.500 F -0.201 0.035 -20° 27' 33.60" 1.000E-01 0.500 F -0.036 0.047 19.5 V 0.70 0.21 c 691 0.12 Yes Yes
1998BX7 O C 2005-08-28.15541 1.000E-05 20:13:09.550 1.500E-01 0.500 F -0.004 0.439 -17° 32' 25.40" 1.000E-01 0.500 F -0.002 0.056 19.5 V 0.70 0.22 c 691 0.89 Yes Yes
1998BX7 O C 2005-08-28.17051 1.000E-05 20:13:08.700 1.500E-01 0.500 F -0.004 0.204 -17° 32' 33.20" 1.000E-01 0.500 F -0.002 -0.111 19.5 V 0.70 0.22 c 691 0.47 Yes Yes
1998BX7 O C 2005-08-28.18566 1.000E-05 20:13:07.860 1.500E-01 0.500 F -0.004 0.163 -17° 32' 40.80" 1.000E-01 0.500 F -0.002 -0.070 19.5 V 0.70 0.22 c 691 0.36 Yes Yes
2005QP11 O C 2005-08-28.20758 1.000E-05 23:03:15.190 1.500E-01 0.500 F -0.018 -5.613 -06° 51' 28.10" 1.000E-01 0.500 F 0.458 3.657 20.2 V 0.70 1.07 c 691 11.74 No Yes
2005QP11 O C 2005-08-28.22498 1.000E-05 23:03:05.050 1.500E-01 0.500 F -0.018 -4.399 -06° 49' 31.80" 1.000E-01 0.500 F 0.458 2.749 20.2 V 0.70 1.08 c 691 9.19 No Yes
2005QP11 O C 2005-08-28.24244 1.000E-05 23:02:54.680 1.500E-01 0.500 F -0.018 -3.214 -06° 47' 33.90" 1.000E-01 0.500 F 0.458 2.248 19.7 V 0.70 0.58 c 691 7.01 No Yes
2005QQ11 O C 2005-08-28.26453 1.000E-05 23:22:58.700 1.500E-01 0.500 F -0.165 0.114 -03° 43' 20.90" 1.000E-01 0.500 F 0.590 0.024 21.0 V 0.70 0.16 c 691 0.24 Yes Yes
2005QQ11 O C 2005-08-28.28524 1.000E-05 23:22:59.190 1.500E-01 0.500 F -0.165 -0.315 -03° 42' 50.20" 1.000E-01 0.500 F 0.590 -0.382 20.9 V 0.70 0.06 c 691 1.01 Yes Yes
2005QQ11 O C 2005-08-28.30595 1.000E-05 23:22:59.690 1.500E-01 0.500 F -0.165 -0.409 -03° 42' 18.50" 1.000E-01 0.500 F 0.590 0.171 21.1 V 0.70 0.26 c 691 0.90 Yes Yes
2005QP11 O C t 2005-08-29.19286 1.000E-05 22:54:13.800 1.500E-01 0.500 F -0.048 1.383 -04° 45' 36.10" 1.000E-01 0.500 F 0.581 -1.220 19.1 V 0.70 0.29 c 691 3.44 No Yes
2005QP11 O C t 2005-08-29.21020 1.000E-05 22:54:01.360 1.500E-01 0.500 F -0.048 -0.272 -04° 43' 08.60" 1.000E-01 0.500 F 0.581 -0.078 19.0 V 0.70 0.20 c 691 0.60 Yes Yes
2005QP11 O C t 2005-08-29.22747 1.000E-05 22:53:48.920 1.500E-01 0.500 F -0.048 0.695 -04° 40' 42.60" 1.000E-01 0.500 F 0.581 -0.698 19.1 V 0.70 0.30 c 691 2.10 Yes Yes
2000WK63 O C 2005-08-29.29870 1.000E-05 23:42:00.860 1.500E-01 0.500 F -0.244 0.316 -03° 02' 13.90" 1.000E-01 0.500 F 0.485 -0.218 20.2 V 0.70 0.28 c 691 0.77 Yes Yes
2005QG30 O C 2005-08-29.31123 1.000E-05 23:29:27.470 1.500E-01 0.500 F -0.225 -0.092 -05° 09' 45.80" 1.000E-01 0.500 F 0.509 0.055 20.0 V 0.70 -0.29 c 691 0.22 Yes Yes
2000WK63 O C 2005-08-29.31615 1.000E-05 23:41:59.430 1.500E-01 0.500 F -0.244 -0.119 -03° 02' 25.80" 1.000E-01 0.500 F 0.485 -0.260 20.3 V 0.70 0.38 c 691 0.57 Yes Yes
2005QG30 O C 2005-08-29.32861 1.000E-05 23:29:26.340 1.500E-01 0.500 F -0.225 -0.011 -05° 09' 14.60" 1.000E-01 0.500 F 0.509 0.219 20.0 V 0.70 -0.29 c 691 0.45 Yes Yes
2000WK63 O C 2005-08-29.33361 1.000E-05 23:41:58.050 1.500E-01 0.500 F -0.244 0.225 -03° 02' 37.70" 1.000E-01 0.500 F 0.485 -0.298 20.2 V 0.70 0.28 c 691 0.75 Yes Yes
2005QG30 O C 2005-08-29.34607 1.000E-05 23:29:25.180 1.500E-01 0.500 F -0.225 -0.232 -05° 08' 43.50" 1.000E-01 0.500 F 0.509 0.106 20.3 V 0.70 0.01 c 691 0.52 Yes Yes
2000XH44 O C 2005-08-29.35744 1.000E-05 00:16:24.180 1.500E-01 0.500 F 0.045 -0.020 +06° 47' 07.30" 1.000E-01 0.500 F 0.382 -0.164 20.6 V 0.70 0.27 c 691 0.33 Yes Yes
2000XH44 O C 2005-08-29.37484 1.000E-05 00:16:23.220 1.500E-01 0.500 F 0.045 0.025 +06° 47' 05.60" 1.000E-01 0.500 F 0.382 -0.181 20.4 V 0.70 0.07 c 691 0.36 Yes Yes
2000XH44 O C 2005-08-29.39274 1.000E-05 00:16:22.210 1.500E-01 0.500 F 0.045 -0.254 +06° 47' 03.70" 1.000E-01 0.500 F 0.382 -0.339 20.6 V 0.70 0.27 c 691 0.85 Yes Yes
2005QP11 O C t 2005-08-30.21066 1.000E-05 22:42:29.360 1.500E-01 0.500 F -0.069 -0.480 -02° 01' 57.20" 1.000E-01 0.500 F 0.422 -0.208 19.0 V 0.70 0.47 c 691 1.10 Yes Yes
2005QP11 O C t 2005-08-30.23140 1.000E-05 22:42:10.540 1.500E-01 0.500 F -0.069 -0.598 -01° 58' 11.70" 1.000E-01 0.500 F 0.422 0.131 18.7 V 0.70 0.17 c 691 1.27 Yes Yes
2005QK76 O C t 2005-08-30.26872 1.000E-05 23:10:23.640 1.500E-01 0.500 F -0.112 1.330 -08° 18' 47.20" 1.000E-01 0.500 F 0.348 -1.315 19.2 V 0.70 -0.10 c 691 3.14 No Yes
2005QK76 O C t 2005-08-30.28614 1.000E-05 23:09:54.870 1.500E-01 0.500 F -0.233 -0.556 -08° 12' 31.30" 1.000E-01 0.500 F 0.588 0.395 19.3 V 0.70 0.00 c 691 1.71 Yes Yes
2005QP87 O C t 2005-08-31.12952 1.000E-05 20:39:22.320 1.500E-01 0.500 F 0.051 2.852 -13° 04' 51.40" 1.000E-01 0.500 F 0.270 -0.062 18.2 V 0.70 -0.27 c 691 5.54 No Yes
2005QQ87 O C t 2005-08-31.13464 1.000E-05 20:42:16.240 1.500E-01 0.500 F -0.090 0.382 -17° 56' 16.80" 1.000E-01 0.500 F 0.185 -0.301 c 691 1.00 Yes No
2005QP87 O C t 2005-08-31.14502 1.000E-05 20:39:59.020 1.500E-01 0.500 F 0.051 1.885 -13° 01' 26.70" 1.000E-01 0.500 F 0.270 0.048 17.8 V 0.70 -0.66 c 691 3.66 No Yes
2005QQ87 O C t 2005-08-31.15002 1.000E-05 20:42:16.910 1.500E-01 0.500 F -0.090 0.121 -18° 00' 35.00" 1.000E-01 0.500 F 0.185 -1.675 c 691 3.31 No No
2005QP87 O C t 2005-08-31.16470 1.000E-05 20:40:45.510 1.500E-01 0.500 F 0.051 4.979 -12° 57' 02.40" 1.000E-01 0.500 F 0.270 1.063 18.3 V 0.70 -0.15 c 691 9.87 No Yes
2005QQ87 O C t 2005-08-31.17241 1.000E-05 20:42:17.870 1.500E-01 0.500 F -0.108 0.093 -18° 06' 46.50" 1.000E-01 0.500 F 0.131 -0.493 c 691 1.02 Yes No
1998FX134 O C 2005-08-31.18461 1.000E-05 22:46:39.200 1.500E-01 0.500 F 0.012 -0.102 -10° 06' 58.80" 1.000E-01 0.500 F 0.435 0.053 20.4 V 0.70 0.51 c 691 0.23 Yes Yes
1998FX134 O C 2005-08-31.20214 1.000E-05 22:46:37.810 1.500E-01 0.500 F 0.012 0.276 -10° 07' 02.20" 1.000E-01 0.500 F 0.435 -0.173 20.3 V 0.70 0.41 c 691 0.66 Yes Yes
1998FX134 O C 2005-08-31.21967 1.000E-05 22:46:36.390 1.500E-01 0.500 F 0.012 0.274 -10° 07' 05.10" 1.000E-01 0.500 F 0.435 0.086 20.4 V 0.70 0.51 c 691 0.59 Yes Yes
2002QY6 O C 2005-08-31.37097 1.000E-05 00:16:16.250 1.500E-01 0.500 F 0.038 -0.129 +01° 00' 18.90" 1.000E-01 0.500 F 0.550 -0.409 20.0 V 0.70 0.78 c 691 0.86 Yes Yes
2002QY6 O C 2005-08-31.38845 1.000E-05 00:16:12.440 1.500E-01 0.500 F 0.038 -0.072 +00° 59' 36.50" 1.000E-01 0.500 F 0.550 -0.368 19.8 V 0.70 0.59 c 691 0.75 Yes Yes
2002QY6 O C 2005-08-31.40599 1.000E-05 00:16:08.620 1.500E-01 0.500 F 0.038 0.060 +00° 58' 54.00" 1.000E-01 0.500 F 0.550 -0.248 19.8 V 0.70 0.59 c 691 0.51 Yes Yes
2005QG88 O C 2005-08-31.42562 1.000E-05 00:42:51.970 1.500E-01 0.500 F -0.208 -0.252 +05° 35' 28.50" 1.000E-01 0.500 F 0.376 0.012 19.8 V 0.70 0.18 c 691 0.52 Yes Yes
2005QG88 O C 2005-08-31.44296 1.000E-05 00:42:48.140 1.500E-01 0.500 F -0.208 -0.076 +05° 35' 41.30" 1.000E-01 0.500 F 0.376 -0.091 19.8 V 0.70 0.18 c 691 0.24 Yes Yes
2005QG88 O C 2005-08-31.46031 1.000E-05 00:42:44.320 1.500E-01 0.500 F -0.208 0.193 +05° 35' 54.20" 1.000E-01 0.500 F 0.376 -0.061 19.8 V 0.70 0.18 c 691 0.42 Yes Yes
1999VU O C 2005-09-01.18265 1.000E-05 22:40:40.310 1.500E-01 0.500 F -0.228 0.021 -06° 29' 44.10" 1.000E-01 0.500 F 0.381 0.201 19.4 V 0.70 0.64 c 691 0.40 Yes Yes
1999VU O C 2005-09-01.19775 1.000E-05 22:40:38.520 1.500E-01 0.500 F -0.228 0.266 -06° 29' 51.00" 1.000E-01 0.500 F 0.381 -0.169 19.2 V 0.70 0.44 c 691 0.63 Yes Yes
1999VU O C 2005-09-01.21839 1.000E-05 22:40:36.020 1.500E-01 0.500 F -0.228 -0.128 -06° 30' 00.10" 1.000E-01 0.500 F 0.381 -0.355 20.1 V 0.70 1.34 c 691 0.76 Yes Yes
2002QY6 O C 2005-09-01.37286 1.000E-05 00:12:41.020 1.500E-01 0.500 F 0.012 0.225 +00° 18' 59.30" 1.000E-01 0.500 F 0.462 -0.063 19.8 V 0.70 0.67 c 691 0.47 Yes Yes
2002QY6 O C 2005-09-01.39370 1.000E-05 00:12:36.250 1.500E-01 0.500 F 0.012 -0.138 +00° 18' 06.50" 1.000E-01 0.500 F 0.462 -0.260 19.8 V 0.70 0.67 c 691 0.59 Yes Yes
2002QY6 O C 2005-09-01.41116 1.000E-05 00:12:32.230 1.500E-01 0.500 F 0.012 -0.781 +00° 17' 22.10" 1.000E-01 0.500 F 0.462 -0.555 19.6 V 0.70 0.47 c 691 1.93 Yes Yes
1996XB27 O C 2005-09-01.44067 1.000E-05 00:42:41.520 1.500E-01 0.500 F -0.227 0.096 +08° 06' 15.00" 1.000E-01 0.500 F 0.337 -0.094 20.6 V 0.70 0.26 c 691 0.27 Yes Yes
1996XB27 O C 2005-09-01.45800 1.000E-05 00:42:40.580 1.500E-01 0.500 F -0.227 -0.017 +08° 06' 00.80" 1.000E-01 0.500 F 0.337 -0.135 20.5 V 0.70 0.16 c 691 0.27 Yes Yes
1996XB27 O C 2005-09-01.47530 1.000E-05 00:42:39.650 1.500E-01 0.500 F -0.227 -0.139 +08° 05' 46.60" 1.000E-01 0.500 F 0.337 -0.140 20.4 V 0.70 0.06 c 691 0.40 Yes Yes
2000WN107 O C 2005-09-11.17524 1.000E-05 22:30:41.250 1.500E-01 0.500 F -0.068 0.143 -08° 00' 21.60" 1.000E-01 0.500 F 0.375 -0.457 21.0 V 0.70 0.20 c 691 0.96 Yes Yes
2005OF3 O C 2005-09-11.17524 1.000E-05 22:28:21.980 1.500E-01 0.500 F 0.046 -0.260 -07° 29' 07.80" 1.000E-01 0.500 F 0.466 0.565 21.4 V 0.70 0.26 c 691 1.47 Yes Yes
1998FX134 O C 2005-09-11.19011 1.000E-05 22:33:26.920 1.500E-01 0.500 F -0.034 0.202 -10° 32' 58.80" 1.000E-01 0.500 F 0.569 -0.156 20.7 V 0.70 0.27 c 691 0.52 Yes Yes
2005OF3 O C 2005-09-11.19259 1.000E-05 22:28:22.180 1.500E-01 0.500 F 0.046 -0.317 -07° 29' 18.30" 1.000E-01 0.500 F 0.466 0.077 21.4 V 0.70 0.26 c 691 0.76 Yes Yes
2000WN107 O C 2005-09-11.19259 1.000E-05 22:30:40.220 1.500E-01 0.500 F -0.068 -0.358 -08° 00' 29.80" 1.000E-01 0.500 F 0.375 -0.235 20.8 V 0.70 0.00 c 691 0.86 Yes Yes
1998FX134 O C 2005-09-11.20747 1.000E-05 22:33:25.750 1.500E-01 0.500 F -0.034 0.042 -10° 33' 00.40" 1.000E-01 0.500 F 0.569 0.091 20.5 V 0.70 0.07 c 691 0.20 Yes Yes
2000WN107 O C 2005-09-11.20993 1.000E-05 22:30:39.260 1.500E-01 0.500 F -0.068 0.189 -08° 00' 38.40" 1.000E-01 0.500 F 0.375 -0.422 20.4 V 0.70 -0.40 c 691 0.93 Yes Yes
2005OF3 O C 2005-09-11.20993 1.000E-05 22:28:22.420 1.500E-01 0.500 F 0.046 0.337 -07° 29' 29.10" 1.000E-01 0.500 F 0.466 -0.755 21.4 V 0.70 0.26 c 691 1.95 Yes Yes
1998FX134 O C 2005-09-11.22482 1.000E-05 22:33:24.590 1.500E-01 0.500 F -0.034 0.051 -10° 33' 02.30" 1.000E-01 0.500 F 0.569 0.020 20.5 V 0.70 0.07 c 691 0.11 Yes Yes
2002QY6 O C 2005-09-11.29436 1.000E-05 23:28:58.470 1.500E-01 0.500 F -0.306 0.152 -07° 46' 42.90" 1.000E-01 0.500 F 0.749 0.063 18.9 V 0.70 0.69 c 691 0.33 Yes Yes
2002QY6 O C 2005-09-11.31171 1.000E-05 23:28:53.000 1.500E-01 0.500 F -0.306 -0.100 -07° 47' 39.50" 1.000E-01 0.500 F 0.749 -0.070 19.1 V 0.70 0.89 c 691 0.25 Yes Yes
2002QY6 O C 2005-09-11.32952 1.000E-05 23:28:47.380 1.500E-01 0.500 F -0.306 -0.395 -07° 48' 37.80" 1.000E-01 0.500 F 0.749 -0.433 19.2 V 0.70 0.99 c 691 1.18 Yes Yes
2005RJ3 O C t 2005-09-12.23249 1.000E-05 22:58:58.500 1.500E-01 0.500 F 0.138 0.725 +01° 49' 05.20" 1.000E-01 0.500 F 0.486 -0.278 18.9 V 0.70 0.44 c 691 1.62 Yes Yes
2005RJ3 O C t 2005-09-12.27277 1.000E-05 22:59:09.050 1.500E-01 0.500 F 0.138 0.199 +01° 57' 02.80" 1.000E-01 0.500 F 0.486 -0.479 18.9 V 0.70 0.43 c 691 1.09 Yes Yes
2005RJ3 O C t 2005-09-12.29014 1.000E-05 22:59:13.600 1.500E-01 0.500 F 0.138 0.276 +02° 00' 28.70" 1.000E-01 0.500 F 0.486 -0.631 19.1 V 0.70 0.63 c 691 1.45 Yes Yes
2000WK63 O C 2005-09-12.32700 1.000E-05 23:23:35.090 1.500E-01 0.500 F -0.150 -0.004 -05° 37' 38.00" 1.000E-01 0.500 F 0.516 -0.443 19.8 V 0.70 0.10 c 691 0.89 Yes Yes
2000WK63 O C 2005-09-12.34445 1.000E-05 23:23:33.730 1.500E-01 0.500 F -0.150 0.138 -05° 37' 48.80" 1.000E-01 0.500 F 0.516 -0.243 20.1 V 0.70 0.40 c 691 0.56 Yes Yes
2000WK63 O C 2005-09-12.36189 1.000E-05 23:23:32.340 1.500E-01 0.500 F -0.150 -0.193 -05° 37' 59.80" 1.000E-01 0.500 F 0.516 -0.258 20.0 V 0.70 0.30 c 691 0.64 Yes Yes
1994CJ1 O C 2005-09-13.32081 1.000E-05 23:28:22.450 1.500E-01 0.500 F -0.309 0.121 -03° 14' 09.30" 1.000E-01 0.500 F 0.459 -0.089 21.1 V 0.70 -0.08 c 691 0.31 Yes Yes
1994CJ1 O C 2005-09-13.33873 1.000E-05 23:28:20.610 1.500E-01 0.500 F -0.309 -0.229 -03° 14' 24.50" 1.000E-01 0.500 F 0.459 -0.267 21.0 V 0.70 -0.18 c 691 0.73 Yes Yes
1994CJ1 O C 2005-09-13.35612 1.000E-05 23:28:18.860 1.500E-01 0.500 F -0.309 -0.075 -03° 14' 39.20" 1.000E-01 0.500 F 0.459 -0.404 21.1 V 0.70 -0.08 c 691 0.84 Yes Yes
2005QX151 O C 2005-09-13.43946 1.000E-05 00:33:54.970 1.500E-01 0.500 F -0.029 0.013 +00° 18' 37.20" 1.000E-01 0.500 F 0.355 0.081 19.6 V 0.70 0.27 c 691 0.16 Yes Yes
2005QX151 O C 2005-09-13.45698 1.000E-05 00:33:55.110 1.500E-01 0.500 F -0.029 -0.101 +00° 19' 06.40" 1.000E-01 0.500 F 0.355 0.098 19.6 V 0.70 0.27 c 691 0.28 Yes Yes
2005QX151 O C 2005-09-13.47789 1.000E-05 00:33:55.280 1.500E-01 0.500 F -0.029 -0.408 +00° 19' 41.40" 1.000E-01 0.500 F 0.355 0.254 19.6 V 0.70 0.27 c 691 0.97 Yes Yes
2002QY6 O C 2005-09-14.22986 1.000E-05 23:13:37.140 1.500E-01 0.500 F -0.165 -0.053 -10° 27' 38.60" 1.000E-01 0.500 F 0.449 -0.082 18.8 V 0.70 0.49 c 691 0.20 Yes Yes
2002QY6 O C 2005-09-14.26255 1.000E-05 23:13:26.330 1.500E-01 0.500 F -0.058 0.149 -10° 29' 26.90" 1.000E-01 0.500 F 0.398 0.108 19.1 V 0.70 0.79 c 691 0.37 Yes Yes
2002QY6 O C 2005-09-14.28009 1.000E-05 23:13:20.460 1.500E-01 0.500 F -0.058 -0.587 -10° 30' 25.50" 1.000E-01 0.500 F 0.398 -0.377 19.0 V 0.70 0.69 c 691 1.41 Yes Yes
1999VU O C 2005-09-23.10573 1.000E-05 22:04:00.480 1.500E-01 0.500 F -0.060 0.198 -08° 40' 00.10" 1.000E-01 0.500 F 0.564 -0.258 19.9 V 0.70 0.16 c 691 0.65 Yes Yes
1999VU O C 2005-09-23.12641 1.000E-05 22:03:58.870 1.500E-01 0.500 F -0.060 0.269 -08° 40' 05.40" 1.000E-01 0.500 F 0.564 -0.230 19.9 V 0.70 0.16 c 691 0.71 Yes Yes
1999VU O C 2005-09-23.15035 1.000E-05 22:03:56.980 1.500E-01 0.500 F -0.060 0.020 -08° 40' 11.40" 1.000E-01 0.500 F 0.564 -0.083 19.9 V 0.70 0.16 c 691 0.17 Yes Yes
2005QF88 O C 2005-09-23.30547 1.000E-05 01:18:28.130 1.500E-01 0.500 F -0.121 -0.523 +05° 42' 47.50" 1.000E-01 0.500 F 0.228 -0.350 19.3 V 0.70 0.47 c 691 1.29 Yes Yes
2005QF88 O C 2005-09-23.32284 1.000E-05 01:18:30.270 1.500E-01 0.500 F -0.121 0.080 +05° 42' 23.40" 1.000E-01 0.500 F 0.228 -0.286 19.8 V 0.70 0.97 c 691 0.61 Yes Yes
2005QF88 O C 2005-09-23.34021 1.000E-05 01:18:32.360 1.500E-01 0.500 F -0.121 0.037 +05° 41' 59.40" 1.000E-01 0.500 F 0.228 -0.082 19.5 V 0.70 0.67 c 691 0.18 Yes Yes
2005SR1 O C 2005-09-23.36195 1.000E-05 01:45:29.180 1.500E-01 0.500 F -0.134 0.071 +05° 12' 42.90" 1.000E-01 0.500 F 0.247 -0.119 20.2 V 0.70 -0.05 c 691 0.28 Yes Yes
2005SR1 O C 2005-09-23.37948 1.000E-05 01:45:27.750 1.500E-01 0.500 F -0.134 -0.131 +05° 12' 31.90" 1.000E-01 0.500 F 0.247 -0.303 20.3 V 0.70 0.05 c 691 0.67 Yes Yes
2005SR1 O C 2005-09-23.39716 1.000E-05 01:45:26.340 1.500E-01 0.500 F -0.134 0.151 +05° 12' 20.90" 1.000E-01 0.500 F 0.247 -0.382 20.2 V 0.70 -0.05 c 691 0.83 Yes Yes
Orpheus O C 2005-09-24.29576 1.000E-05 00:55:08.200 1.500E-01 0.500 F -0.228 0.077 +06° 50' 59.50" 1.000E-01 0.500 F 0.279 -0.091 18.5 V 0.70 0.29 c 691 0.24 Yes Yes
Orpheus O C 2005-09-24.31312 1.000E-05 00:55:06.510 1.500E-01 0.500 F -0.228 1.770 +06° 50' 41.70" 1.000E-01 0.500 F 0.279 -1.446 18.0 V 0.70 -0.21 c 691 4.56 No Yes
Orpheus O C 2005-09-24.33389 1.000E-05 00:55:04.240 1.500E-01 0.500 F -0.228 0.185 +06° 50' 23.30" 1.000E-01 0.500 F 0.279 -0.113 18.6 V 0.70 0.39 c 691 0.44 Yes Yes
2002BY O C 2005-09-24.41117 1.000E-05 02:02:14.920 1.500E-01 0.500 F -0.250 -0.024 +13° 43' 59.10" 1.000E-01 0.500 F 0.450 -0.119 21.1 V 0.70 0.12 c 691 0.24 Yes Yes
2002BY O C 2005-09-24.42859 1.000E-05 02:02:13.850 1.500E-01 0.500 F -0.250 0.040 +13° 43' 52.90" 1.000E-01 0.500 F 0.450 0.218 21.0 V 0.70 0.03 c 691 0.44 Yes Yes
2002BY O C 2005-09-24.44607 1.000E-05 02:02:12.790 1.500E-01 0.500 F -0.250 0.292 +13° 43' 46.00" 1.000E-01 0.500 F 0.450 -0.102 21.0 V 0.70 0.03 c 691 0.62 Yes Yes
2000WN107 O C 2005-09-25.11330 1.000E-05 22:18:53.080 1.500E-01 0.500 F -0.012 -0.065 -09° 43' 35.30" 1.000E-01 0.500 F 0.523 0.094 20.7 V 0.70 -0.46 c 691 0.23 Yes Yes
2000WN107 O C 2005-09-25.13937 1.000E-05 22:18:51.900 1.500E-01 0.500 F -0.012 -0.054 -09° 43' 46.40" 1.000E-01 0.500 F 0.523 -0.589 21.4 V 0.70 0.24 c 691 1.19 Yes Yes
2000WN107 O C 2005-09-25.16887 1.000E-05 22:18:50.590 1.500E-01 0.500 F -0.012 0.372 -09° 43' 58.70" 1.000E-01 0.500 F 0.523 -1.123 21.3 V 0.70 0.14 c 691 2.37 Yes Yes
1999GJ2 O C 2005-09-25.29650 1.000E-05 01:31:11.000 1.500E-01 0.500 F -0.049 0.003 +17° 55' 59.70" 1.000E-01 0.500 F 0.432 0.015 15.9 V 0.70 0.23 c 691 0.03 Yes Yes
1999GJ2 O C 2005-09-25.31391 1.000E-05 01:31:11.200 1.500E-01 0.500 F -0.049 0.099 +17° 55' 18.70" 1.000E-01 0.500 F 0.432 -0.024 15.8 V 0.70 0.13 c 691 0.20 Yes Yes
1999GJ2 O C 2005-09-25.33132 1.000E-05 01:31:11.380 1.500E-01 0.500 F -0.049 0.018 +17° 54' 37.60" 1.000E-01 0.500 F 0.432 -0.055 15.9 V 0.70 0.23 c 691 0.12 Yes Yes
2005SW4 O C 2005-09-25.35357 1.000E-05 01:45:26.330 1.500E-01 0.500 F -0.061 0.034 +11° 00' 54.70" 1.000E-01 0.500 F 0.238 0.014 20.7 V 0.70 0.06 c 691 0.07 Yes Yes
2005SX4 O C 2005-09-25.36337 1.000E-05 02:04:19.250 1.500E-01 0.500 F -0.165 0.196 +08° 13' 03.40" 1.000E-01 0.500 F 0.353 0.145 20.1 V 0.70 0.16 c 691 0.49 Yes Yes
2005SW4 O C 2005-09-25.37092 1.000E-05 01:45:26.350 1.500E-01 0.500 F -0.061 0.122 +11° 01' 08.00" 1.000E-01 0.500 F 0.238 -0.196 20.6 V 0.70 -0.04 c 691 0.46 Yes Yes
2005SX4 O C 2005-09-25.38074 1.000E-05 02:04:21.410 1.500E-01 0.500 F -0.165 0.022 +08° 13' 00.90" 1.000E-01 0.500 F 0.353 -0.058 20.0 V 0.70 0.06 c 691 0.12 Yes Yes
2005SW4 O C 2005-09-25.38827 1.000E-05 01:45:26.350 1.500E-01 0.500 F -0.061 -0.073 +11° 01' 21.80" 1.000E-01 0.500 F 0.238 0.122 20.9 V 0.70 0.26 c 691 0.29 Yes Yes
2005SX4 O C 2005-09-25.39808 1.000E-05 02:04:23.590 1.500E-01 0.500 F -0.165 0.200 +08° 12' 58.70" 1.000E-01 0.500 F 0.353 0.076 19.8 V 0.70 -0.14 c 691 0.43 Yes Yes
2005NY39 O C 2005-09-26.11130 1.000E-05 22:36:40.630 1.500E-01 0.500 F -0.049 -0.141 -01° 33' 08.80" 1.000E-01 0.500 F 0.431 -0.329 20.4 V 0.70 0.13 c 691 0.75 Yes Yes
2005NY39 O C 2005-09-26.13741 1.000E-05 22:36:41.740 1.500E-01 0.500 F -0.049 0.038 -01° 33' 01.90" 1.000E-01 0.500 F 0.431 0.103 20.5 V 0.70 0.23 c 691 0.23 Yes Yes
2005NY39 O C 2005-09-26.16344 1.000E-05 22:36:42.820 1.500E-01 0.500 F -0.049 0.101 -01° 32' 55.60" 1.000E-01 0.500 F 0.431 -0.053 20.3 V 0.70 0.03 c 691 0.23 Yes Yes
2005QX151 O C 2005-09-26.19398 1.000E-05 00:35:42.140 1.500E-01 0.500 F -0.019 0.093 +07° 14' 37.40" 1.000E-01 0.500 F 0.378 0.219 19.2 V 0.70 0.60 c 691 0.48 Yes Yes
2005QX151 O C 2005-09-26.21148 1.000E-05 00:35:41.990 1.500E-01 0.500 F -0.019 -0.120 +07° 15' 16.80" 1.000E-01 0.500 F 0.378 0.130 19.1 V 0.70 0.50 c 691 0.36 Yes Yes
2005QX151 O C 2005-09-26.22905 1.000E-05 00:35:41.850 1.500E-01 0.500 F -0.019 0.047 +07° 15' 56.20" 1.000E-01 0.500 F 0.378 -0.096 19.1 V 0.70 0.50 c 691 0.22 Yes Yes
2005SQ9 O C 2005-09-26.34262 1.000E-05 01:20:52.090 1.500E-01 0.500 F -0.074 -0.286 +08° 06' 58.20" 1.000E-01 0.500 F 0.359 0.220 20.7 V 0.70 0.18 c 691 0.75 Yes Yes
2005SQ9 O C 2005-09-26.36004 1.000E-05 01:20:48.710 1.500E-01 0.500 F -0.074 -0.208 +08° 07' 04.00" 1.000E-01 0.500 F 0.359 -0.070 21.0 V 0.70 0.48 c 691 0.46 Yes Yes
2005SQ9 O C 2005-09-26.37745 1.000E-05 01:20:45.330 1.500E-01 0.500 F -0.074 -0.213 +08° 07' 09.80" 1.000E-01 0.500 F 0.359 -0.277 20.4 V 0.70 -0.12 c 691 0.73 Yes Yes
2005SG19 O C 2005-09-26.38997 1.000E-05 01:50:18.380 1.500E-01 0.500 F -0.070 -0.034 +16° 58' 55.70" 1.000E-01 0.500 F 0.276 -0.259 20.4 V 0.70 0.35 c 691 0.53 Yes Yes
2005SH19 O C 2005-09-26.40235 1.000E-05 01:51:16.060 1.500E-01 0.500 F -0.272 -0.502 +16° 11' 17.00" 1.000E-01 0.500 F 0.400 -0.291 21.2 V 0.70 0.19 c 691 1.17 Yes Yes
2005SG19 O C 2005-09-26.40786 1.000E-05 01:50:16.750 1.500E-01 0.500 F -0.070 0.249 +16° 58' 58.80" 1.000E-01 0.500 F 0.276 0.009 20.3 V 0.70 0.25 c 691 0.50 Yes Yes
2005SH19 O C 2005-09-26.42025 1.000E-05 01:51:14.370 1.500E-01 0.500 F -0.272 -0.023 +16° 11' 18.30" 1.000E-01 0.500 F 0.400 -0.137 21.0 V 0.70 -0.01 c 691 0.28 Yes Yes
2005SG19 O C 2005-09-26.42521 1.000E-05 01:50:15.130 1.500E-01 0.500 F -0.070 -0.048 +16° 59' 01.50" 1.000E-01 0.500 F 0.276 -0.017 20.6 V 0.70 0.55 c 691 0.10 Yes Yes
2005SH19 O C 2005-09-26.43766 1.000E-05 01:51:12.700 1.500E-01 0.500 F -0.272 0.062 +16° 11' 19.30" 1.000E-01 0.500 F 0.400 -0.234 21.1 V 0.70 0.09 c 691 0.49 Yes Yes
2002EZ2 O C 2005-09-27.12498 1.000E-05 22:51:24.640 1.500E-01 0.500 F -0.135 -0.033 -06° 07' 27.20" 1.000E-01 0.500 F 0.565 -0.042 18.3 V 0.70 0.22 c 691 0.10 Yes Yes
2002EZ2 O C 2005-09-27.14046 1.000E-05 22:51:25.030 1.500E-01 0.500 F -0.135 0.043 -06° 08' 26.90" 1.000E-01 0.500 F 0.565 -0.474 18.2 V 0.70 0.12 c 691 0.95 Yes Yes
2002EZ2 O C 2005-09-27.15899 1.000E-05 22:51:25.470 1.500E-01 0.500 F -0.135 0.004 -06° 09' 37.30" 1.000E-01 0.500 F 0.565 0.010 18.2 V 0.70 0.12 c 691 0.03 Yes Yes
2005SQ O C 2005-09-27.25434 1.000E-05 01:02:42.710 1.500E-01 0.500 F -0.168 0.143 +09° 38' 38.70" 1.000E-01 0.500 F 0.315 -0.037 20.2 V 0.70 -0.19 c 691 0.30 Yes Yes
2005SQ O C 2005-09-27.27170 1.000E-05 01:02:39.880 1.500E-01 0.500 F -0.168 -0.089 +09° 38' 21.90" 1.000E-01 0.500 F 0.315 -0.229 20.3 V 0.70 -0.09 c 691 0.49 Yes Yes
2005SQ O C 2005-09-27.28908 1.000E-05 01:02:37.050 1.500E-01 0.500 F -0.168 -0.216 +09° 38' 05.50" 1.000E-01 0.500 F 0.315 0.024 20.1 V 0.70 -0.29 c 691 0.44 Yes Yes
2005QX151 O C 2005-09-29.17915 1.000E-05 00:35:41.810 1.500E-01 0.500 F -0.150 0.018 +09° 09' 05.00" 1.000E-01 0.500 F 0.470 0.000 19.1 V 0.70 0.62 c 691 0.04 Yes Yes
2005QX151 O C 2005-09-29.19994 1.000E-05 00:35:41.620 1.500E-01 0.500 F -0.150 0.267 +09° 09' 54.50" 1.000E-01 0.500 F 0.470 0.043 19.0 V 0.70 0.52 c 691 0.55 Yes Yes
2005QX151 O C 2005-09-29.21728 1.000E-05 00:35:41.420 1.500E-01 0.500 F -0.150 0.113 +09° 10' 35.90" 1.000E-01 0.500 F 0.470 0.226 19.1 V 0.70 0.63 c 691 0.51 Yes Yes
2005SR1 O C 2005-09-29.36888 1.000E-05 01:37:31.480 1.500E-01 0.500 F -0.062 -0.040 +04° 11' 06.20" 1.000E-01 0.500 F 0.284 -0.176 20.1 V 0.70 -0.09 c 691 0.37 Yes Yes
2005SR1 O C 2005-09-29.38628 1.000E-05 01:37:29.980 1.500E-01 0.500 F -0.062 0.007 +04° 10' 55.70" 1.000E-01 0.500 F 0.284 -0.085 20.1 V 0.70 -0.09 c 691 0.17 Yes Yes
2005SR1 O C 2005-09-29.40377 1.000E-05 01:37:28.450 1.500E-01 0.500 F -0.062 -0.301 +04° 10' 45.00" 1.000E-01 0.500 F 0.284 -0.131 20.1 V 0.70 -0.09 c 691 0.67 Yes Yes
2002BY O C 2005-09-30.35016 1.000E-05 01:55:55.120 1.500E-01 0.500 F -0.074 -0.492 +13° 03' 47.10" 1.000E-01 0.500 F 0.500 -0.565 21.3 V 0.70 0.46 c 691 1.51 Yes Yes
2005SW4 O C 2005-09-30.36011 1.000E-05 01:45:33.670 1.500E-01 0.500 F 0.027 0.164 +12° 08' 19.30" 1.000E-01 0.500 F 0.330 -0.144 20.4 V 0.70 0.06 c 691 0.44 Yes Yes
2002BY O C 2005-09-30.36764 1.000E-05 01:55:53.950 1.500E-01 0.500 F -0.074 0.522 +13° 03' 40.00" 1.000E-01 0.500 F 0.500 -0.030 21.3 V 0.70 0.46 c 691 1.05 Yes Yes
2005SW4 O C 2005-09-30.37756 1.000E-05 01:45:33.500 1.500E-01 0.500 F 0.027 0.178 +12° 08' 34.00" 1.000E-01 0.500 F 0.330 -0.072 20.5 V 0.70 0.16 c 691 0.39 Yes Yes
2002BY O C 2005-09-30.38496 1.000E-05 01:55:52.700 1.500E-01 0.500 F -0.074 0.206 +13° 03' 32.20" 1.000E-01 0.500 F 0.500 -0.245 21.4 V 0.70 0.56 c 691 0.64 Yes Yes
2005SW4 O C 2005-09-30.39498 1.000E-05 01:45:33.340 1.500E-01 0.500 F 0.027 0.323 +12° 08' 48.50" 1.000E-01 0.500 F 0.330 -0.142 20.5 V 0.70 0.16 c 691 0.71 Yes Yes
Orpheus O C 2005-10-01.16075 1.000E-05 00:42:31.850 1.500E-01 0.500 F -0.258 -0.153 +04° 44' 55.30" 1.000E-01 0.500 F 0.412 -0.223 18.0 V 0.70 0.45 c 691 0.54 Yes Yes
Orpheus O C 2005-10-01.18167 1.000E-05 00:42:29.110 1.500E-01 0.500 F -0.258 0.042 +04° 44' 29.50" 1.000E-01 0.500 F 0.412 -0.049 18.0 V 0.70 0.45 c 691 0.13 Yes Yes
Orpheus O C 2005-10-01.20243 1.000E-05 00:42:26.350 1.500E-01 0.500 F -0.258 -0.046 +04° 44' 03.50" 1.000E-01 0.500 F 0.412 -0.230 18.1 V 0.70 0.56 c 691 0.47 Yes Yes
2001FZ6 O C 2005-10-01.28617 1.000E-05 01:28:35.070 1.500E-01 0.500 F -0.386 0.058 +05° 01' 13.60" 1.000E-01 0.500 F 0.441 -0.039 17.5 V 0.70 0.21 c 691 0.14 Yes Yes
2001FZ6 O C 2005-10-01.30354 1.000E-05 01:28:32.880 1.500E-01 0.500 F -0.386 0.061 +05° 01' 32.30" 1.000E-01 0.500 F 0.441 0.138 17.4 V 0.70 0.11 c 691 0.30 Yes Yes
2001FZ6 O C 2005-10-01.32433 1.000E-05 01:28:30.250 1.500E-01 0.500 F -0.386 0.025 +05° 01' 54.20" 1.000E-01 0.500 F 0.441 -0.099 17.5 V 0.70 0.21 c 691 0.21 Yes Yes
2005QE166 O C 2005-10-01.40715 1.000E-05 02:20:08.280 1.500E-01 0.500 F -0.101 0.245 +08° 18' 07.70" 1.000E-01 0.500 F 0.431 -0.303 17.5 V 0.70 0.35 c 691 0.78 Yes Yes
2005SX4 O C 2005-10-01.40963 1.000E-05 02:18:25.960 1.500E-01 0.500 F -0.081 -0.133 +07° 53' 45.80" 1.000E-01 0.500 F 0.359 0.229 19.8 V 0.70 0.21 c 691 0.53 Yes Yes
2005SJ19 O C t 2005-10-01.40963 1.000E-05 02:15:56.460 1.500E-01 0.500 F -0.125 -0.051 +08° 45' 16.50" 1.000E-01 0.500 F 0.412 -1.181 19.7 V 0.70 0.48 c 691 2.70 Yes Yes
2005QE166 O C 2005-10-01.42448 1.000E-05 02:20:09.600 1.500E-01 0.500 F -0.101 0.145 +08° 17' 42.00" 1.000E-01 0.500 F 0.431 -0.240 17.3 V 0.70 0.15 c 691 0.56 Yes Yes
2005SX4 O C 2005-10-01.42701 1.000E-05 02:18:28.360 1.500E-01 0.500 F -0.081 -0.006 +07° 53' 41.20" 1.000E-01 0.500 F 0.359 0.073 19.8 V 0.70 0.21 c 691 0.15 Yes Yes
2005SJ19 O C t 2005-10-01.42701 1.000E-05 02:15:44.510 1.500E-01 0.500 F -0.125 0.339 +08° 50' 06.20" 1.000E-01 0.500 F 0.412 -0.551 19.5 V 0.70 0.28 c 691 1.48 Yes Yes
2005QE166 O C 2005-10-01.44687 1.000E-05 02:20:11.300 1.500E-01 0.500 F -0.081 -0.160 +08° 17' 08.80" 1.000E-01 0.500 F 0.359 -0.025 17.2 V 0.70 0.05 c 691 0.33 Yes Yes
2005SX4 O C 2005-10-01.44929 1.000E-05 02:18:31.430 1.500E-01 0.500 F -0.081 -0.083 +07° 53' 35.40" 1.000E-01 0.500 F 0.359 0.031 19.6 V 0.70 0.01 c 691 0.18 Yes Yes
2005SJ19 O C t 2005-10-01.44929 1.000E-05 02:15:29.190 1.500E-01 0.500 F -0.125 -0.122 +08° 56' 17.30" 1.000E-01 0.500 F 0.412 1.055 19.3 V 0.70 0.08 c 691 2.44 Yes Yes
1998KV2 O C 2005-10-01.47693 1.000E-05 07:54:01.690 1.500E-01 0.500 F 0.438 -0.081 +19° 55' 04.00" 1.000E-01 0.500 F 0.497 -0.101 19.6 V 0.70 0.02 c 691 0.26 Yes Yes
1998KV2 O C 2005-10-01.48941 1.000E-05 07:54:04.980 1.500E-01 0.500 F 0.438 -0.167 +19° 55' 05.20" 1.000E-01 0.500 F 0.497 0.165 19.8 V 0.70 0.22 c 691 0.47 Yes Yes
1998KV2 O C 2005-10-01.50194 1.000E-05 07:54:08.300 1.500E-01 0.500 F 0.438 0.012 +19° 55' 05.90" 1.000E-01 0.500 F 0.497 -0.058 19.8 V 0.70 0.22 c 691 0.12 Yes Yes
1999GJ2 O C 2005-10-03.33370 1.000E-05 01:32:47.080 1.500E-01 0.500 F -0.036 -0.138 +12° 22' 18.30" 1.000E-01 0.500 F 0.282 -0.222 15.6 V 0.70 0.20 c 691 0.53 Yes Yes
1999GJ2 O C 2005-10-03.35110 1.000E-05 01:32:46.930 1.500E-01 0.500 F -0.036 -0.155 +12° 21' 33.70" 1.000E-01 0.500 F 0.282 -0.166 15.5 V 0.70 0.10 c 691 0.46 Yes Yes
1999GJ2 O C 2005-10-03.37534 1.000E-05 01:32:46.730 1.500E-01 0.500 F -0.036 -0.075 +12° 20' 31.30" 1.000E-01 0.500 F 0.282 -0.236 15.6 V 0.70 0.20 c 691 0.50 Yes Yes
1998MZ O C 2005-10-05.41552 1.000E-05 02:47:07.770 1.500E-01 0.500 F 0.026 -0.009 +15° 45' 37.40" 1.000E-01 0.500 F 0.466 0.081 20.0 V 0.70 -0.18 c 691 0.17 Yes Yes
1998MZ O C 2005-10-05.43293 1.000E-05 02:47:06.730 1.500E-01 0.500 F 0.026 0.042 +15° 45' 32.70" 1.000E-01 0.500 F 0.466 0.091 20.0 V 0.70 -0.18 c 691 0.20 Yes Yes
1998MZ O C 2005-10-05.45021 1.000E-05 02:47:05.710 1.500E-01 0.500 F 0.026 0.249 +15° 45' 27.90" 1.000E-01 0.500 F 0.466 0.009 20.1 V 0.70 -0.08 c 691 0.50 Yes Yes
Orpheus O C 2005-10-06.15354 1.000E-05 00:31:19.820 1.500E-01 0.500 F -0.048 0.109 +02° 52' 29.10" 1.000E-01 0.500 F 0.500 -0.090 17.9 V 0.70 0.49 c 691 0.28 Yes Yes
2003SZ219 O C 2005-10-06.16338 1.000E-05 00:16:50.400 1.500E-01 0.500 F 0.038 0.166 +00° 56' 04.30" 1.000E-01 0.500 F 0.551 -0.248 17.9 V 0.70 0.45 c 691 0.60 Yes Yes
Orpheus O C 2005-10-06.17825 1.000E-05 00:31:16.090 1.500E-01 0.500 F -0.048 0.152 +02° 51' 53.40" 1.000E-01 0.500 F 0.500 -0.208 17.9 V 0.70 0.49 c 691 0.52 Yes Yes
2003SZ219 O C 2005-10-06.18811 1.000E-05 00:16:49.960 1.500E-01 0.500 F 0.038 0.206 +00° 55' 18.30" 1.000E-01 0.500 F 0.551 -0.122 18.0 V 0.70 0.55 c 691 0.48 Yes Yes
Orpheus O C 2005-10-06.19548 1.000E-05 00:31:13.470 1.500E-01 0.500 F -0.048 0.160 +02° 51' 28.70" 1.000E-01 0.500 F 0.500 -0.069 17.9 V 0.70 0.49 c 691 0.35 Yes Yes
2003SZ219 O C 2005-10-06.20534 1.000E-05 00:16:49.640 1.500E-01 0.500 F 0.038 0.203 +00° 54' 46.10" 1.000E-01 0.500 F 0.551 -0.181 18.0 V 0.70 0.55 c 691 0.55 Yes Yes
2003EF54 O C 2005-10-06.28121 1.000E-05 01:20:37.890 1.500E-01 0.500 F 0.043 0.081 +16° 44' 15.20" 1.000E-01 0.500 F 0.255 -0.053 20.5 V 0.70 0.16 c 691 0.19 Yes Yes
2003EF54 O C 2005-10-06.29857 1.000E-05 01:20:35.630 1.500E-01 0.500 F 0.043 -0.038 +16° 43' 58.80" 1.000E-01 0.500 F 0.255 -0.374 20.7 V 0.70 0.36 c 691 0.76 Yes Yes
2003EF54 O C 2005-10-06.31591 1.000E-05 01:20:33.390 1.500E-01 0.500 F 0.043 0.111 +16° 43' 43.00" 1.000E-01 0.500 F 0.255 -0.067 20.4 V 0.70 0.06 c 691 0.26 Yes Yes
2002HW O C 2005-10-06.34564 1.000E-05 02:00:42.480 1.500E-01 0.612 F -0.290 -0.050 +07° 31' 28.00" 1.000E-01 0.612 F 0.407 -0.022 19.9 V 0.70 0.45 c 691 0.09 Yes Yes
2002HW O C 2005-10-06.36293 1.000E-05 02:00:41.820 1.500E-01 0.612 F -0.290 0.300 +07° 31' 30.50" 1.000E-01 0.612 F 0.407 -0.057 20.0 V 0.70 0.55 c 691 0.50 Yes Yes
2002HW O C 2005-10-06.38015 1.000E-05 02:00:41.140 1.500E-01 0.612 F -0.290 0.314 +07° 31' 33.10" 1.000E-01 0.612 F 0.407 0.040 20.3 V 0.70 0.86 c 691 0.52 Yes Yes
2002HW O C 2005-10-06.41057 1.000E-05 02:00:39.920 1.500E-01 0.612 F -0.290 0.012 +07° 31' 37.20" 1.000E-01 0.612 F 0.407 -0.230 19.8 V 0.70 0.36 c 691 0.38 Yes Yes
2002HW O C 2005-10-06.42536 1.000E-05 02:00:39.340 1.500E-01 0.612 F -0.290 0.013 +07° 31' 39.50" 1.000E-01 0.612 F 0.407 -0.032 19.6 V 0.70 0.16 c 691 0.06 Yes Yes
2002HW O C 2005-10-06.44029 1.000E-05 02:00:38.760 1.500E-01 0.612 F -0.290 0.050 +07° 31' 41.60" 1.000E-01 0.612 F 0.407 -0.039 20.1 V 0.70 0.66 c 691 0.10 Yes Yes
2005SQ O C 2005-10-07.16338 1.000E-05 00:39:40.450 1.500E-01 0.500 F -0.174 -0.272 +07° 09' 59.60" 1.000E-01 0.500 F 0.364 -0.065 20.7 V 0.70 0.27 c 691 0.57 Yes Yes
2005SQ O C 2005-10-07.18072 1.000E-05 00:39:38.310 1.500E-01 0.500 F -0.174 0.063 +07° 09' 45.30" 1.000E-01 0.500 F 0.364 -0.340 20.4 V 0.70 -0.03 c 691 0.70 Yes Yes
2005SQ O C 2005-10-07.19875 1.000E-05 00:39:36.060 1.500E-01 0.500 F -0.174 0.129 +07° 09' 30.60" 1.000E-01 0.500 F 0.364 -0.447 20.2 V 0.70 -0.23 c 691 0.94 Yes Yes
2005TE49 O C t 2005-10-07.22370 1.000E-05 00:50:21.670 1.500E-01 0.500 F -0.249 -1.143 +07° 57' 28.00" 1.000E-01 0.500 F 0.297 -0.604 20.8 V 0.70 c 691 0.00 No Yes
2017TV1 O C t 2005-10-07.22370 1.000E-05 00:50:21.670 1.500E-01 0.500 F -0.249 -1.103 +07° 57' 28.00" 1.000E-01 0.500 F 0.297 -1.546 20.8 V 0.70 0.71 c 691 3.23 No Yes
2005TE49 O C t 2005-10-07.24108 1.000E-05 00:50:11.850 1.500E-01 0.500 F -0.249 2.245 +07° 55' 08.20" 1.000E-01 0.500 F 0.297 1.817 20.7 V 0.70 c 691 0.00 No Yes
2017TV1 O C t 2005-10-07.24108 1.000E-05 00:50:11.850 1.500E-01 0.500 F -0.249 2.189 +07° 55' 08.20" 1.000E-01 0.500 F 0.297 0.933 20.7 V 0.70 0.62 c 691 4.13 No Yes
2005TD49 O C t 2005-10-07.27313 1.000E-05 01:30:34.550 1.500E-01 0.500 F -0.086 4.226 +09° 35' 14.40" 1.000E-01 0.500 F 0.213 0.440 19.7 V 0.70 0.55 c 691 7.78 No Yes
2005TD49 O C t 2005-10-07.29059 1.000E-05 01:31:11.570 1.500E-01 0.500 F -0.086 -7.690 +09° 38' 57.80" 1.000E-01 0.500 F 0.213 -5.269 19.2 V 0.70 0.04 c 691 17.06 No Yes
2005TD49 O C t 2005-10-07.30790 1.000E-05 01:31:49.690 1.500E-01 0.500 F -0.086 1.311 +09° 42' 49.10" 1.000E-01 0.500 F 0.213 -0.610 19.2 V 0.70 0.04 c 691 3.15 Yes Yes
1994UG O C 2005-10-07.33063 1.000E-05 01:52:42.900 1.500E-01 0.500 F -0.074 0.229 +13° 16' 12.00" 1.000E-01 0.500 F 0.500 -0.038 21.1 V 0.70 0.05 c 691 0.47 Yes Yes
1994UG O C 2005-10-07.34801 1.000E-05 01:52:40.180 1.500E-01 0.500 F -0.074 0.028 +13° 16' 06.70" 1.000E-01 0.500 F 0.500 -0.345 21.0 V 0.70 -0.05 c 691 0.70 Yes Yes
1994UG O C 2005-10-07.36539 1.000E-05 01:52:37.460 1.500E-01 0.500 F -0.074 -0.174 +13° 16' 01.90" 1.000E-01 0.500 F 0.500 -0.103 21.2 V 0.70 0.15 c 691 0.41 Yes Yes
2015VL105 O C 2005-10-07.45200 1.000E-05 08:01:06.750 1.500E-01 0.500 F 0.269 -0.527 +23° 54' 42.30" 1.000E-01 0.500 F 0.344 0.150 21.0 V 0.70 -0.08 c 691 1.28 Yes Yes
2015VL105 O C 2005-10-07.46785 1.000E-05 08:01:09.630 1.500E-01 0.500 F 0.269 0.005 +23° 54' 10.60" 1.000E-01 0.500 F 0.344 -0.395 21.1 V 0.70 0.02 c 691 0.91 Yes Yes
2015VL105 O C 2005-10-07.48023 1.000E-05 08:01:11.850 1.500E-01 0.500 F 0.269 0.055 +23° 53' 46.50" 1.000E-01 0.500 F 0.344 -0.142 20.8 V 0.70 -0.28 c 691 0.37 Yes Yes
2003SZ219 O C 2005-10-09.15043 1.000E-05 00:16:23.340 1.500E-01 0.500 F -0.249 2.339 -00° 36' 27.90" 1.000E-01 0.500 F 0.629 -0.161 18.2 V 0.70 0.64 c 691 4.65 No Yes
2003SZ219 O C 2005-10-09.16770 1.000E-05 00:16:22.930 1.500E-01 0.500 F -0.249 -0.114 -00° 37' 00.00" 1.000E-01 0.500 F 0.629 -0.366 18.0 V 0.70 0.44 c 691 0.77 Yes Yes

[1-200] [201-400] [401-600] [601-800] [801-1000] [1001-1200] [1201-1400] [1401-1600] [1601-1800] [1801-2000] [2001-2200] [2201-2400] [2401-2600] [2601-2800] [2801-3000] [3001-3200] [3201-3400] [3401-3600] [3601-3800] [3801-4000] [4001-4200] [4201-4400] [4401-4600] [4601-4800] [4801-5000] [5001-5200] [5201-5400] [5401-5600] [5601-5800] [5801-6000] [6001-6200] [6201-6400] [6401-6600] [6601-6800] [6801-7000] [7001-7200] [7201-7400] [7401-7600] [7601-7800] [7801-8000] [8001-8200] [8201-8400] [8401-8600] [8601-8800] [8801-9000] [9001-9200] [9201-9400] [9401-9600] [9601-9800] [9801-10000] [10001-10200] [10201-10400] [10401-10600] [10601-10800] [10801-11000] [11001-11200] [11201-11400] [11401-11600] [11601-11800] [11801-12000] [12001-12200] [12201-12400] [12401-12600] [12601-12800] [12801-13000] [13001-13200] [13201-13400] [13401-13600] [13601-13800] [13801-14000] [14001-14200] [14201-14400] [14401-14600] [14601-14800] [14801-15000] [15001-15200] [15201-15400] [15401-15600] [15601-15800] [15801-16000] [16001-16200] [16201-16400] [16401-16600] [16601-16800] [16801-17000] [17001-17200] [17201-17400] [17401-17600] [17601-17800] [17801-18000] [18001-18200] [18201-18400] [18401-18600] [18601-18800] [18801-19000] [19001-19200] [19201-19400] [19401-19600] [19601-19800] [19801-20000] [20001-20200] [20201-20400] [20401-20600] [20601-20800] [20801-21000] [21001-21200] [21201-21400] [21401-21600] [21601-21800] [21801-22000] [22001-22200] [22201-22400] [22401-22600] [22601-22800] [22801-23000] [23001-23200] [23201-23400] [23401-23600] [23601-23800] [23801-24000] [24001-24200] [24201-24400] [24401-24600] [24601-24800] [24801-25000] [25001-25200] [25201-25400] [25401-25600] [25601-25800] [25801-26000] [26001-26200] [26201-26400] [26401-26600] [26601-26800] [26801-27000] [27001-27200] [27201-27400] [27401-27600] [27601-27800] [27801-28000] [28001-28200] [28201-28400] [28401-28600] [28601-28800] [28801-29000] [29001-29200] [29201-29400] [29401-29600] [29601-29800] [29801-30000] [30001-30200] [30201-30400] [30401-30600] [30601-30800] [30801-31000] [31001-31200] [31201-31400] [31401-31600] [31601-31800] [31801-32000] [32001-32200] [32201-32400] [32401-32600] [32601-32800] [32801-33000] [33001-33200] [33201-33400] [33401-33600] [33601-33800] [33801-34000] [34001-34200] [34201-34400] [34401-34600] [34601-34800] [34801-35000] [35001-35200] [35201-35400] [35401-35600] [35601-35800] [35801-36000] [36001-36200] [36201-36400] [36401-36600] [36601-36800] [36801-37000] [37001-37200] [37201-37400] [37401-37600] [37601-37800] [37801-38000] [38001-38200] [38201-38400] [38401-38600] [38601-38800] [38801-39000] [39001-39200] [39201-39400] [39401-39600] [39601-39800] [39801-40000] [40001-40200] [40201-40400] [40401-40600] [40601-40800] [40801-41000] [41001-41200] [41201-41400] [41401-41600] [41601-41800] [41801-42000] [42001-42200] [42201-42400] [42401-42600] [42601-42800] [42801-43000] [43001-43200] [43201-43400] [43401-43600] [43601-43800] [43801-44000] [44001-44200] [44201-44400] [44401-44600] [44601-44800] [44801-45000] [45001-45200] [45201-45400] [45401-45600] [45601-45800] [45801-46000] [46001-46200] [46201-46400] [46401-46600] [46601-46800] [46801-47000] [47001-47200] [47201-47400] [47401-47600] [47601-47800] [47801-48000] [48001-48200] [48201-48400] [48401-48600] [48601-48800] [48801-49000] [49001-49200] [49201-49400] [49401-49600] [49601-49800] [49801-50000] [50001-50200] [50201-50388]